Flight Track Log - Related Links

Times and Time Zones

All times are in EDT time to prevent confusion due to time zone crossing. See the N832R flight status page for this flight to view local times or setup timezone preferences in your user account.

Time Position Orientation Groundspeed Altitude Reporting Facility
EDT Latitude Longitude Course Direction KTS MPH feet Rate Location/Type
Sun 11:32:40 AM 44.3647 -73.2561 246° West 276 318 8,800  Level Boston Center
Sun 11:33:40 AM 44.3264 -73.3572 242° Southwest 288 331 11,300 2,550 Climbing Boston Center
Sun 11:34:40 AM 44.2858 -73.4608 241° Southwest 294 338 13,900 2,450 Climbing Boston Center
Sun 11:35:40 AM 44.2433 -73.5675 241° Southwest 308 354 16,200 1,950 Climbing Boston Center
Sun 11:36:00 AM 44.1646 -73.8781 240° Southwest  Level FlightAware Approximate
Sun 11:36:40 AM 44.2025 -73.6739 242° Southwest 313 360 17,800  Level Boston Center
Sun 11:37:40 AM 44.1575 -73.7886 241° Southwest 327 376 19,500 1,682 Climbing Boston Center
Sun 11:38:52 AM 44.1039 -73.9203 240° Southwest 345 397 21,500 1,591 Climbing Boston Center
Sun 11:39:52 AM 44.0586 -74.0378 242° Southwest 350 403 23,000 1,550 Climbing Boston Center
Sun 11:40:52 AM 44.0044 -74.1689 240° Southwest 350 403 24,600 1,500 Climbing Boston Center
Sun 11:41:52 AM 43.9547 -74.2917 241° Southwest 355 409 26,000 1,300 Climbing Boston Center
Sun 11:42:52 AM 43.9047 -74.4197 242° Southwest 368 423 27,200 1,050 Climbing Boston Center
Sun 11:43:52 AM 43.8503 -74.5503 240° Southwest 379 436 28,100 950 Climbing Boston Center
Sun 11:44:52 AM 43.7978 -74.6808 241° Southwest 391 450 29,100 1,100 Climbing Boston Center
Sun 11:45:52 AM 43.7428 -74.8197 241° Southwest 396 456 30,300 1,300 Climbing Boston Center
Sun 11:46:52 AM 43.6878 -74.9525 240° Southwest 401 461 31,700 1,500 Climbing Boston Center
Sun 11:47:52 AM 43.6347 -75.0850 241° Southwest 401 461 33,300 1,600 Climbing Boston Center
Sun 11:48:52 AM 43.5861 -75.2119 242° Southwest 394 453 34,900 1,500 Climbing Boston Center
Sun 11:49:52 AM 43.5328 -75.3442 241° Southwest 389 448 36,300 1,250 Climbing Boston Center
Sun 11:50:52 AM 43.4792 -75.4733 240° Southwest 389 448 37,400 1,050 Climbing Boston Center
Sun 11:51:52 AM 43.4239 -75.5992 239° Southwest 389 448 38,400 1,000 Climbing Boston Center
Sun 11:52:52 AM 43.3681 -75.7306 240° Southwest 389 448 39,400 800 Climbing Boston Center
Sun 11:53:52 AM 43.3122 -75.8561 239° Southwest 389 448 40,000 237 Climbing Boston Center
Sun 11:55:24 AM 43.2222 -76.0642 239° Southwest 391 450 40,000  Level Cleveland Center
Sun 11:56:24 AM 43.1631 -76.2022 240° Southwest 410 472 40,000  Level Cleveland Center
Sun 11:57:24 AM 43.1144 -76.3536 246° West 431 496 40,000  Level Cleveland Center
Sun 11:58:24 AM 43.0656 -76.5019 246° West 437 503 40,000  Level Cleveland Center
Sun 11:59:24 AM 43.0186 -76.6528 247° West 437 503 40,000  Level Cleveland Center
Sun 12:00:24 PM 42.9694 -76.8036 246° West 437 503 40,000  Level Cleveland Center
Sun 12:01:24 PM 42.9222 -76.9539 247° West 437 503 40,000  Level Cleveland Center
Sun 12:02:24 PM 42.8728 -77.1042 246° West 437 503 40,000  Level Cleveland Center
Sun 12:03:24 PM 42.8228 -77.2542 246° West 437 503 40,000  Level Cleveland Center
Sun 12:04:24 PM 42.7750 -77.4036 247° West 437 503 40,000  Level Cleveland Center
Sun 12:05:24 PM 42.7344 -77.5244 245° Southwest 430 495 40,000  Level Cleveland Center
Sun 12:06:24 PM 42.6725 -77.7111 246° West 441 507 40,000  Level Cleveland Center
Sun 12:07:24 PM 42.6281 -77.8544 247° West 446 513 40,000  Level Cleveland Center
Sun 12:08:24 PM 42.5772 -77.9975 244° Southwest 446 513 40,000  Level Cleveland Center
Sun 12:09:24 PM 42.5261 -78.1433 245° Southwest 440 506 40,000  Level Cleveland Center
Sun 12:10:24 PM 42.4772 -78.2944 246° West 440 506 40,000  Level Cleveland Center
Sun 12:11:24 PM 42.4258 -78.4425 245° Southwest 440 506 40,000  Level Cleveland Center
Sun 12:12:24 PM 42.3783 -78.5903 247° West 435 501 40,000  Level Cleveland Center
Sun 12:13:24 PM 42.3603 -78.7539 262° West 435 501 40,000  Level Cleveland Center
Sun 12:14:24 PM 42.3400 -78.9258 261° West 436 502 40,000  Level Cleveland Center
Sun 12:15:24 PM 42.3403 -79.0944 270° West 442 509 40,000  Level Cleveland Center
Sun 12:16:24 PM 42.3294 -79.2519 265° West 442 509 40,000  Level Cleveland Center
Sun 12:17:24 PM 42.3208 -79.4122 266° West 442 509 40,000  Level Cleveland Center
Sun 12:18:24 PM 42.3100 -79.5753 265° West 442 509 40,000  Level Cleveland Center
Sun 12:19:24 PM 42.2986 -79.7383 265° West 442 509 40,000  Level Cleveland Center
Sun 12:20:24 PM 42.2894 -79.9011 266° West 442 509 40,000  Level Cleveland Center
Sun 12:21:24 PM 42.2778 -80.0639 265° West 447 514 40,000  Level Cleveland Center
Sun 12:22:24 PM 42.2678 -80.2072 265° West 441 507 40,000  Level Cleveland Center
Sun 12:23:24 PM 42.2558 -80.3672 264° West 441 507 40,000  Level Cleveland Center
Sun 12:24:24 PM 42.2475 -80.5300 266° West 441 507 40,000  Level Cleveland Center
Sun 12:25:24 PM 42.2331 -80.6953 263° West 448 516 40,000  Level Cleveland Center
Sun 12:26:24 PM 42.2222 -80.8578 265° West 442 509 40,000  Level Cleveland Center
Sun 12:27:24 PM 42.2092 -81.0147 264° West 442 509 40,000  Level Cleveland Center
Sun 12:28:24 PM 42.1981 -81.1772 265° West 442 509 40,000  Level Cleveland Center
Sun 12:29:24 PM 42.1847 -81.3397 264° West 442 509 40,000  Level Cleveland Center
Sun 12:30:24 PM 42.1708 -81.5189 264° West 442 509 40,000 -100 Level Cleveland Center
Sun 12:31:24 PM 42.1569 -81.6811 263° West 442 509 39,800 -550 Descending Cleveland Center
Sun 12:32:24 PM 42.1447 -81.8378 264° West 442 509 38,900 -1,050 Descending Cleveland Center
Sun 12:33:24 PM 42.1325 -81.9942 264° West 435 501 37,700 -1,300 Descending Cleveland Center
Sun 12:34:24 PM 42.1556 -82.1461 282° West 418 481 36,300 -1,350 Descending Cleveland Center
Sun 12:35:24 PM 42.1847 -82.2981 285° West 418 481 35,000 -1,150 Descending Cleveland Center
Sun 12:36:24 PM 42.2094 -82.4558 282° West 418 481 34,000 -500 Descending Cleveland Center
Sun 12:37:24 PM 42.2381 -82.6136 284° West 423 487 34,000  Level Cleveland Center
Sun 12:38:24 PM 42.2664 -82.7661 284° West 428 493 34,000 -50 Level Cleveland Center
Sun 12:39:24 PM 42.2906 -82.9214 282° West 428 493 33,900 -550 Descending Cleveland Center
Sun 12:40:24 PM 42.3183 -83.0797 283° West 433 498 32,900 -800 Descending Cleveland Center
Sun 12:41:24 PM 42.3400 -83.2294 281° West 440 506 32,300 -450 Descending Cleveland Center
Sun 12:42:24 PM 42.3675 -83.3881 283° West 446 513 32,000 -150 Descending Cleveland Center
Sun 12:43:24 PM 42.3992 -83.5411 286° West 435 501 32,000  Level Cleveland Center
Sun 12:44:24 PM 42.4283 -83.7003 284° West 435 501 32,000  Level Cleveland Center
Sun 12:45:24 PM 42.4575 -83.8564 284° West 435 501 32,000  Level Cleveland Center
Sun 12:46:24 PM 42.4569 -84.0139 270° West 435 501 32,000  Level Cleveland Center
Sun 12:47:24 PM 42.4131 -84.1550 247° West 413 475 32,000  Level Cleveland Center
Sun 12:48:24 PM 42.3650 -84.2900 244° Southwest 408 470 32,000 -350 Level Cleveland Center
Sun 12:49:24 PM 42.3192 -84.4167 244° Southwest 390 449 31,300 -1,400 Descending Cleveland Center
Sun 12:50:24 PM 42.2711 -84.5428 243° Southwest 385 443 29,200 -2,346 Descending Cleveland Center
Sun 12:51:37 PM 42.2128 -84.7003 243° Southwest 367 422 26,100 -2,222 Descending Chicago Center
Sun 12:52:39 PM 42.1700 -84.8169 244° Southwest 352 405 24,200 -1,016 Descending Chicago Center
Sun 12:53:41 PM 42.1294 -84.9256 243° Southwest 331 381 24,000 -919 Descending Chicago Center
Sun 12:54:43 PM 42.0894 -85.0325 243° Southwest 322 371 22,300 -1,984 Descending Chicago Center
Sun 12:55:45 PM 42.0456 -85.1494 243° Southwest 345 397 19,900 -2,226 Descending Chicago Center
Sun 12:56:47 PM 42.0031 -85.2628 243° Southwest 342 394 17,700 -2,371 Descending Chicago Center
Sun 12:57:49 PM 41.9586 -85.3811 243° Southwest 324 373 15,000 -2,419 Descending Chicago Center
Sun 12:58:51 PM 41.9208 -85.4817 243° Southwest 307 353 12,700 -2,129 Descending Chicago Center
Sun 12:59:53 PM 41.8844 -85.5744 242° Southwest 287 330 10,600 -2,112 Descending Chicago Center
Sun 01:00:56 PM 41.8436 -85.6825 243° Southwest 274 315 8,300 -2,160 Descending Chicago Center
Sun 01:01:58 PM 41.8103 -85.7706 243° Southwest 270 311 6,100 -2,081 Descending Chicago Center
Sun 01:03:00 PM 41.7789 -85.8575 244° Southwest 264 304 4,000 -1,500 Descending Chicago Center
Sun 01:04:02 PM 41.7575 -85.9417 251° West 256 295 3,000 -774 Descending Chicago Center
Sun 01:05:04 PM 41.7575 -86.0125 270° West 213 245 2,400 -629 Descending Chicago Center
Sun 01:06:06 PM 41.7339 -86.0508 230° Southwest 163 188 1,700 -581 Descending Chicago Center
Sun 01:07:08 PM 41.7150 -86.0308 142° Southeast 138 159 1,200 -484 Descending Chicago Center
Sun 01:09:00 PM 41.7167 -86.0000 37° Northeast  Level FlightAware Approximate
Sun 01:16:00 PM 41.7194 -86.0032 37° Northeast  Level Estimated
Sun 01:17:00 PM 41.7167 -86.0000 37° Northeast  Level FlightAware Approximate
Sun 01:18:00 PM 41.7194 -86.0032 37° Northeast  Level Estimated
Sun 01:19:00 PM 41.7167 -86.0000 37° Northeast  Level FlightAware Approximate
Sun 01:20:00 PM 41.7194 -86.0032 37° Northeast  Level Estimated
Sun 01:21:00 PM 41.7167 -86.0000 37° Northeast  Level FlightAware Approximate
Sun 01:22:00 PM 41.7194 -86.0032 37° Northeast  Level Estimated
Sun 01:23:00 PM 41.7167 -86.0000 37° Northeast  Level FlightAware Approximate

Login

Don't have an account? Register now (free) for customized features, flight alerts, and more!